Time;durP1;ratioP1;P1;durP2;ratioP2;P2;SDS_P1;SDS_P2;PMS_P1;PMS_P2;Temp;Humidity;BMP_temperature;BMP_pressure;BME280_temperature;BME280_humidity;BME280_pressure;Samples;Min_cycle;Max_cycle;Signal;HPM_P1;HPM_P2
2021/03/18 02:32:06;;;;;;;18.58;6.78;;;3.50;99.90;;;;;;6046337;22;20835;-80
2021/03/18 03:45:30;;;;;;;22.42;8.15;;;3.60;99.90;;;;;;6041883;22;20100;-80
2021/03/18 03:47:57;;;;;;;22.85;7.28;;;3.50;99.90;;;;;;5041373;28;20065;-80
2021/03/18 03:50:25;;;;;;;26.08;8.57;;;2.60;99.90;;;;;;5041272;28;20058;-80
2021/03/18 03:52:54;;;;;;;15.15;5.70;;;3.30;99.90;;;;;;5041231;28;20058;-80
2021/03/18 03:55:35;;;;;;;25.67;6.88;;;2.70;99.90;;;;;;5041134;28;20026;-79
2021/03/18 03:58:06;;;;;;;22.83;6.93;;;3.30;99.90;;;;;;5041146;28;20057;-80
2021/03/18 04:00:34;;;;;;;23.58;7.32;;;3.50;99.90;;;;;;5041123;28;20034;-81
2021/03/18 08:29:40;;;;;;;65.43;16.95;;;6.30;99.90;;;;;;6031656;22;20332;-83
2021/03/18 08:32:08;;;;;;;47.78;14.05;;;6.30;99.90;;;;;;5039354;28;20133;-82
2021/03/18 08:34:45;;;;;;;47.60;14.57;;;6.40;99.90;;;;;;5036911;28;20050;-83
2021/03/18 08:37:12;;;;;;;52.58;14.20;;;6.40;99.90;;;;;;5034187;28;20113;-83
2021/03/18 08:39:46;;;;;;;46.47;13.93;;;6.50;99.90;;;;;;5030619;28;20053;-83
2021/03/18 08:47:55;;;;;;;35.75;13.65;;;6.60;99.90;;;;;;5313953;22;20037;-83
2021/03/18 08:53:10;;;;;;;42.70;13.65;;;6.60;99.90;;;;;;5279417;22;20046;-80
2021/03/18 08:55:37;;;;;;;42.45;12.25;;;6.60;99.90;;;;;;5031152;28;20079;-81
2021/03/18 08:58:04;;;;;;;52.00;15.15;;;6.70;99.90;;;;;;5026529;28;20065;-82
2021/03/18 09:00:30;;;;;;;39.47;13.68;;;6.70;99.90;;;;;;5020143;28;20049;-82
2021/03/18 09:02:58;;;;;;;53.20;14.40;;;6.70;99.90;;;;;;5018111;28;20532;-82
2021/03/18 09:05:25;;;;;;;49.35;16.00;;;6.80;99.90;;;;;;5016785;28;20082;-83
2021/03/18 09:07:52;;;;;;;47.58;15.73;;;6.80;99.90;;;;;;4996431;28;20050;-82
2021/03/18 09:24:20;;;;;;;45.45;14.13;;;7.00;99.90;;;;;;5101419;22;20442;-89
2021/03/18 09:26:50;;;;;;;40.33;12.32;;;7.00;99.90;;;;;;5031300;28;20045;-88
2021/03/18 09:29:31;;;;;;;42.50;13.85;;;7.10;99.90;;;;;;5030013;28;20107;-88
2021/03/18 09:32:02;;;;;;;43.25;11.93;;;7.10;99.90;;;;;;5033635;28;20076;-89
2021/03/18 09:34:32;;;;;;;38.83;13.57;;;7.10;99.90;;;;;;5031428;28;20061;-89
2021/03/18 09:36:59;;;;;;;33.30;13.30;;;7.10;99.90;;;;;;5030988;28;20085;-83
2021/03/18 09:42:44;;;;;;;33.88;9.23;;;7.20;99.90;;;;;;5334395;22;20144;-85
2021/03/18 09:45:18;;;;;;;33.08;11.32;;;7.10;99.90;;;;;;5030373;28;20478;-87
2021/03/18 09:47:48;;;;;;;37.13;11.40;;;5.80;99.90;;;;;;5018986;28;20481;-84
2021/03/18 09:50:14;;;;;;;23.60;9.90;;;7.20;99.90;;;;;;5002445;28;20498;-85
2021/03/18 09:52:41;;;;;;;34.60;10.27;;;7.30;99.90;;;;;;4995665;28;20072;-91
2021/03/18 09:55:11;;;;;;;30.80;8.77;;;7.40;99.90;;;;;;4995321;28;20050;-88
2021/03/18 09:57:38;;;;;;;26.88;8.98;;;7.40;99.90;;;;;;4995415;28;20069;-90
2021/03/18 10:00:07;;;;;;;28.67;9.85;;;7.50;99.90;;;;;;4995267;28;20054;-89
2021/03/18 10:02:33;;;;;;;30.70;9.35;;;7.50;99.90;;;;;;4995488;28;20062;-90
2021/03/18 10:05:00;;;;;;;32.67;9.88;;;7.50;99.90;;;;;;4994927;28;20050;-92
2021/03/18 10:07:28;;;;;;;33.10;10.98;;;7.60;99.90;;;;;;4995436;28;20061;-91
2021/03/18 10:09:54;;;;;;;28.20;7.90;;;7.60;99.90;;;;;;4995091;28;20050;-91
2021/03/18 10:12:22;;;;;;;26.08;7.45;;;7.70;99.90;;;;;;4995382;28;20395;-89
2021/03/18 10:14:54;;;;;;;19.50;7.80;;;7.70;99.90;;;;;;4995236;28;20054;-90
2021/03/18 10:17:25;;;;;;;29.27;8.02;;;7.80;99.90;;;;;;4995120;28;20070;-89
2021/03/18 10:19:57;;;;;;;24.77;8.43;;;7.80;99.90;;;;;;4995309;28;20370;-91
2021/03/18 10:22:25;;;;;;;26.65;6.65;;;7.90;99.90;;;;;;4995113;28;20055;-91
2021/03/18 10:25:06;;;;;;;18.42;5.82;;;7.90;99.90;;;;;;4998797;28;20448;-90
2021/03/18 10:27:33;;;;;;;18.15;7.07;;;8.00;99.90;;;;;;4995102;28;20475;-90
2021/03/18 10:30:08;;;;;;;15.20;6.05;;;8.00;99.90;;;;;;4995071;28;20054;-89
2021/03/18 10:32:35;;;;;;;;;;;8.00;99.90;;;;;;4995691;28;20054;-89
2021/03/18 10:35:02;;;;;;;15.23;5.13;;;8.10;99.90;;;;;;4994614;28;19932;-89
2021/03/18 10:37:32;;;;;;;22.42;6.18;;;8.10;99.90;;;;;;4994998;28;20054;-91
2021/03/18 10:40:13;;;;;;;19.85;5.25;;;8.20;99.90;;;;;;4995339;28;20375;-89
2021/03/18 10:42:39;;;;;;;12.25;4.68;;;8.20;99.90;;;;;;4994991;28;20467;-92
2021/03/18 10:45:14;;;;;;;13.32;4.88;;;8.30;99.90;;;;;;4995792;28;20051;-92
2021/03/18 10:47:42;;;;;;;13.45;4.30;;;8.30;99.90;;;;;;4999432;28;20058;-92
2021/03/18 10:50:11;;;;;;;11.57;4.10;;;8.40;99.90;;;;;;4998868;28;20431;-92
2021/03/18 10:52:39;;;;;;;9.40;5.30;;;8.40;99.90;;;;;;4999205;28;20108;-91
2021/03/18 10:55:07;;;;;;;17.63;4.70;;;8.50;99.90;;;;;;4998345;28;20049;-93
2021/03/18 10:57:34;;;;;;;13.45;4.40;;;8.50;99.90;;;;;;4998472;28;20061;-93
2021/03/18 11:00:02;;;;;;;17.58;5.75;;;8.60;99.90;;;;;;4998685;28;20054;-87
2021/03/18 11:02:29;;;;;;;16.08;5.13;;;8.60;99.90;;;;;;4997810;28;20133;-91
2021/03/18 11:04:57;;;;;;;13.98;5.35;;;8.70;99.90;;;;;;4997816;28;20046;-91
2021/03/18 11:07:26;;;;;;;15.73;4.32;;;8.70;99.90;;;;;;4998456;28;20050;-92
2021/03/18 11:10:10;;;;;;;9.98;4.18;;;8.70;99.90;;;;;;4998459;28;20218;-92
2021/03/18 11:12:37;;;;;;;12.00;3.63;;;8.90;99.90;;;;;;4998452;28;20145;-92
2021/03/18 11:15:05;;;;;;;14.25;3.83;;;8.90;99.90;;;;;;4998348;28;20050;-92
2021/03/18 11:17:32;;;;;;;18.90;4.15;;;8.90;99.90;;;;;;4998163;28;20047;-92
2021/03/18 11:20:13;;;;;;;17.30;6.00;;;9.00;99.90;;;;;;4997962;28;20050;-93
2021/03/18 11:22:40;;;;;;;14.32;4.28;;;9.10;99.90;;;;;;4998157;28;20057;-92
2021/03/18 11:25:08;;;;;;;15.55;4.25;;;9.10;99.90;;;;;;4998051;28;20046;-92
2021/03/18 11:27:34;;;;;;;11.07;3.83;;;9.20;99.90;;;;;;4997994;28;20046;-92
2021/03/18 11:30:01;;;;;;;16.08;4.60;;;9.20;99.90;;;;;;4997850;28;20456;-93
2021/03/18 11:32:28;;;;;;;13.27;3.80;;;9.20;99.90;;;;;;4997988;28;20054;-92
2021/03/18 11:34:56;;;;;;;10.00;4.40;;;9.20;99.90;;;;;;4997654;28;20046;-92
2021/03/18 11:37:28;;;;;;;17.10;4.47;;;9.20;99.90;;;;;;4997685;28;20500;-92
2021/03/18 11:39:55;;;;;;;15.57;4.95;;;9.30;99.90;;;;;;4997821;28;20069;-92
2021/03/18 11:42:21;;;;;;;12.73;4.25;;;9.30;99.90;;;;;;4997601;28;20061;-92
2021/03/18 11:44:48;;;;;;;19.98;4.35;;;9.30;99.90;;;;;;4997607;28;20050;-92
2021/03/18 11:47:15;;;;;;;11.90;5.03;;;9.30;99.90;;;;;;4997526;28;20461;-92
2021/03/18 11:49:43;;;;;;;17.92;4.72;;;9.40;99.90;;;;;;4997269;28;20050;-92
2021/03/18 11:52:09;;;;;;;19.92;5.47;;;9.40;99.90;;;;;;4997790;28;20054;-92
2021/03/18 11:54:37;;;;;;;16.90;4.07;;;9.50;99.90;;;;;;4997673;28;20376;-92
2021/03/18 11:57:04;;;;;;;6.97;3.10;;;9.60;99.90;;;;;;4996765;28;20054;-92
2021/03/18 11:59:31;;;;;;;11.88;4.13;;;9.70;99.90;;;;;;4997374;28;20448;-92
2021/03/18 12:01:58;;;;;;;13.68;4.00;;;9.70;99.90;;;;;;4997365;28;20085;-92
2021/03/18 12:04:24;;;;;;;9.73;3.42;;;9.80;99.90;;;;;;4997367;28;20117;-92
2021/03/18 12:06:51;;;;;;;11.40;4.88;;;9.80;99.90;;;;;;4997170;28;20141;-93
2021/03/18 12:09:17;;;;;;;11.77;3.75;;;9.80;99.90;;;;;;4997242;28;20049;-93
2021/03/18 12:11:45;;;;;;;10.43;3.53;;;9.90;99.90;;;;;;4997565;28;20394;-92
2021/03/18 12:14:12;;;;;;;13.25;4.28;;;9.90;99.90;;;;;;4997220;28;20046;-92
2021/03/18 12:16:38;;;;;;;9.02;4.07;;;9.90;99.90;;;;;;4997287;28;20382;-92
2021/03/18 12:19:05;;;;;;;13.40;3.22;;;9.90;99.90;;;;;;4997116;28;20043;-92
2021/03/18 12:21:32;;;;;;;10.63;3.38;;;10.00;99.90;;;;;;4997101;28;20064;-93
2021/03/18 12:23:58;;;;;;;10.80;4.13;;;10.00;99.90;;;;;;4996950;28;20051;-92
2021/03/18 12:26:25;;;;;;;12.15;3.67;;;10.00;99.90;;;;;;5010994;28;20481;-93
2021/03/18 12:28:52;;;;;;;10.20;4.97;;;9.90;99.90;;;;;;5016436;28;20049;-92
2021/03/18 12:31:19;;;;;;;9.73;3.58;;;9.90;99.90;;;;;;5016585;28;20080;-93
2021/03/18 12:33:45;;;;;;;7.47;4.35;;;9.90;99.90;;;;;;5016472;28;20107;-92
2021/03/18 12:36:12;;;;;;;9.70;4.10;;;9.90;99.90;;;;;;5016455;28;20470;-93
2021/03/18 12:38:39;;;;;;;6.40;2.75;;;9.90;99.90;;;;;;5016650;28;20050;-93
2021/03/18 12:41:05;;;;;;;6.68;2.85;;;10.00;99.90;;;;;;5016019;28;20463;-92
2021/03/18 12:43:32;;;;;;;8.48;4.03;;;10.10;99.90;;;;;;5016344;28;20056;-92
2021/03/18 12:46:00;;;;;;;8.25;3.13;;;10.10;99.90;;;;;;5016318;28;20046;-92
2021/03/18 12:48:26;;;;;;;6.65;2.47;;;10.20;99.90;;;;;;5016025;28;20050;-92
2021/03/18 12:50:53;;;;;;;10.00;3.90;;;10.20;99.90;;;;;;5015774;28;20061;-92
2021/03/18 12:53:19;;;;;;;5.03;1.98;;;10.30;99.90;;;;;;5016300;28;20126;-94
2021/03/18 12:55:48;;;;;;;5.95;2.50;;;10.30;99.90;;;;;;5015944;28;20103;-92
2021/03/18 12:58:15;;;;;;;6.53;2.30;;;10.40;99.90;;;;;;5016044;28;20054;-93
2021/03/18 13:00:41;;;;;;;7.38;3.67;;;10.40;99.90;;;;;;5016202;28;20390;-93
2021/03/18 13:03:09;;;;;;;4.05;1.75;;;10.50;99.90;;;;;;5015689;28;20049;-93
2021/03/18 13:05:36;;;;;;;5.78;2.65;;;10.50;99.90;;;;;;5015869;28;20364;-92
2021/03/18 13:08:03;;;;;;;9.40;2.20;;;10.60;99.90;;;;;;5015614;28;20529;-92
2021/03/18 13:10:30;;;;;;;4.65;1.92;;;10.50;99.90;;;;;;5015917;28;20493;-93
2021/03/18 13:12:56;;;;;;;3.67;1.65;;;10.60;99.90;;;;;;5015895;28;20060;-93
2021/03/18 13:15:23;;;;;;;9.18;2.88;;;10.60;99.90;;;;;;5015794;28;20046;-92
2021/03/18 13:17:50;;;;;;;10.07;2.65;;;10.60;99.90;;;;;;5015811;28;20054;-92
2021/03/18 13:20:19;;;;;;;7.88;2.45;;;10.60;99.90;;;;;;5015584;28;20050;-92
2021/03/18 13:22:46;;;;;;;5.80;3.50;;;10.50;99.90;;;;;;5015789;28;20085;-93
2021/03/18 13:25:13;;;;;;;7.10;2.92;;;10.50;99.90;;;;;;5015243;28;20111;-92
2021/03/18 13:27:42;;;;;;;9.25;3.80;;;10.40;99.90;;;;;;5015459;28;20053;-93
2021/03/18 13:30:10;;;;;;;4.32;2.40;;;10.40;99.90;;;;;;5015660;28;20061;-92
2021/03/18 13:32:37;;;;;;;4.50;2.40;;;10.40;99.90;;;;;;5015337;28;20481;-92
2021/03/18 13:35:05;;;;;;;5.35;2.72;;;10.50;99.90;;;;;;5015507;28;20053;-93
2021/03/18 13:37:32;;;;;;;12.40;4.18;;;10.50;99.90;;;;;;5015272;28;20114;-93
2021/03/18 13:39:59;;;;;;;5.20;2.60;;;10.50;99.90;;;;;;5015106;28;20056;-93
2021/03/18 13:42:27;;;;;;;6.97;3.33;;;10.50;99.90;;;;;;5015472;28;20061;-92
2021/03/18 13:44:54;;;;;;;6.72;3.35;;;10.50;99.90;;;;;;5015675;28;20046;-92
2021/03/18 13:47:21;;;;;;;8.55;3.33;;;10.50;99.90;;;;;;5015825;28;20057;-92
2021/03/18 13:49:48;;;;;;;10.15;3.80;;;10.50;99.90;;;;;;5015281;28;20046;-92
2021/03/18 13:52:15;;;;;;;6.15;2.75;;;10.50;99.90;;;;;;5015355;28;20049;-92
2021/03/18 13:54:43;;;;;;;6.15;3.60;;;10.50;99.90;;;;;;5015593;28;20045;-93
2021/03/18 13:57:09;;;;;;;5.03;2.60;;;10.50;99.90;;;;;;5015988;28;20133;-93
2021/03/18 13:59:36;;;;;;;3.95;2.55;;;10.50;99.90;;;;;;5015949;28;20046;-92
2021/03/18 14:02:03;;;;;;;11.20;3.10;;;10.40;99.90;;;;;;5015479;28;20053;-93
2021/03/18 14:04:29;;;;;;;8.32;3.83;;;10.30;99.90;;;;;;5015578;28;20054;-91
2021/03/18 14:06:56;;;;;;;5.60;3.40;;;10.20;99.90;;;;;;5003369;28;20475;-93
2021/03/18 14:09:23;;;;;;;4.32;2.75;;;10.10;99.90;;;;;;4996021;28;20050;-93
2021/03/18 14:11:50;;;;;;;8.65;2.88;;;10.10;99.90;;;;;;4995989;28;20112;-93
2021/03/18 14:14:17;;;;;;;4.82;2.90;;;10.10;99.90;;;;;;4995061;28;20047;-93
2021/03/18 14:16:43;;;;;;;7.45;3.10;;;10.10;99.90;;;;;;4995389;28;20318;-93
2021/03/18 14:19:10;;;;;;;5.53;2.58;;;10.10;99.90;;;;;;4998949;28;20060;-93
2021/03/18 14:21:37;;;;;;;9.70;3.63;;;10.10;99.90;;;;;;5017663;28;20466;-92
2021/03/18 14:24:04;;;;;;;9.07;2.20;;;10.10;99.90;;;;;;5018658;28;20447;-92
2021/03/18 14:26:31;;;;;;;5.68;2.60;;;10.10;99.90;;;;;;5018832;28;20054;-92
2021/03/18 14:28:58;;;;;;;6.30;2.35;;;10.10;99.90;;;;;;5019031;28;20054;-93
2021/03/18 14:31:25;;;;;;;16.70;3.72;;;10.10;99.90;;;;;;5018086;28;20484;-93
2021/03/18 14:33:51;;;;;;;4.80;3.22;;;10.10;99.90;;;;;;5018664;28;20060;-90
2021/03/18 14:36:18;;;;;;;9.07;4.60;;;10.10;99.90;;;;;;5018539;28;20225;-92
2021/03/18 14:38:44;;;;;;;7.10;2.60;;;10.10;99.90;;;;;;5018434;28;20062;-90
2021/03/18 14:41:11;;;;;;;9.90;3.25;;;10.00;99.90;;;;;;5018092;28;20053;-89
2021/03/18 14:43:38;;;;;;;7.32;2.85;;;9.90;99.90;;;;;;5018510;28;20068;-92
2021/03/18 14:46:05;;;;;;;7.25;2.40;;;9.90;99.90;;;;;;5018340;28;20057;-92
2021/03/18 14:48:32;;;;;;;12.50;4.68;;;9.90;99.90;;;;;;5018157;28;20092;-93
2021/03/18 14:50:58;;;;;;;9.20;2.50;;;10.00;99.90;;;;;;4998991;28;20467;-86
2021/03/18 14:53:26;;;;;;;9.68;2.75;;;10.00;99.90;;;;;;4998429;28;20051;-93
2021/03/18 14:55:53;;;;;;;11.60;3.20;;;10.10;99.90;;;;;;4999155;28;20054;-92
2021/03/18 14:58:21;;;;;;;8.95;2.70;;;10.10;99.90;;;;;;4998717;28;20057;-92
2021/03/18 15:00:47;;;;;;;6.22;3.38;;;10.20;99.90;;;;;;4998749;28;20060;-92
2021/03/18 15:03:15;;;;;;;4.45;2.70;;;10.20;99.90;;;;;;4998330;28;20054;-92
2021/03/18 15:05:41;;;;;;;9.77;2.97;;;10.20;99.90;;;;;;4998600;28;20451;-92
2021/03/18 15:08:08;;;;;;;8.23;2.80;;;10.20;99.90;;;;;;4998255;28;20058;-91
2021/03/18 15:10:35;;;;;;;6.68;3.17;;;10.20;99.90;;;;;;4998463;28;20514;-92
2021/03/18 15:13:02;;;;;;;6.50;2.85;;;10.20;99.90;;;;;;4998162;28;20053;-93
2021/03/18 15:15:28;;;;;;;7.75;3.58;;;10.20;99.90;;;;;;4998447;28;20046;-91
2021/03/18 15:17:55;;;;;;;11.35;3.15;;;10.20;99.90;;;;;;4998503;28;20176;-92
2021/03/18 15:20:24;;;;;;;6.07;2.90;;;10.20;99.90;;;;;;5012022;28;20054;-93
2021/03/18 15:22:51;;;;;;;8.93;4.13;;;10.20;99.90;;;;;;5017527;28;20050;-92
2021/03/18 15:25:18;;;;;;;10.32;2.72;;;10.20;99.90;;;;;;5017742;28;20050;-92
2021/03/18 15:27:45;;;;;;;9.27;3.08;;;10.20;99.90;;;;;;5017689;28;20053;-92
2021/03/18 15:30:13;;;;;;;6.65;3.20;;;10.20;99.90;;;;;;5017510;28;20368;-92
2021/03/18 15:32:41;;;;;;;5.80;2.72;;;10.30;99.90;;;;;;5016723;28;20050;-92
2021/03/18 15:35:09;;;;;;;4.90;2.35;;;10.30;99.90;;;;;;5017994;28;20046;-93
2021/03/18 15:37:36;;;;;;;8.93;2.38;;;10.30;99.90;;;;;;5017862;28;20046;-92
2021/03/18 15:40:05;;;;;;;7.00;2.40;;;10.40;99.90;;;;;;5017845;28;20054;-92
2021/03/18 15:42:31;;;;;;;9.68;2.22;;;10.40;99.90;;;;;;5019083;28;20054;-91
2021/03/18 15:44:58;;;;;;;11.90;2.45;;;10.40;99.90;;;;;;5024513;28;20085;-86
2021/03/18 15:47:25;;;;;;;8.40;2.55;;;10.40;99.90;;;;;;5019479;28;20441;-88
2021/03/18 15:49:52;;;;;;;8.80;2.20;;;10.30;99.90;;;;;;5020961;28;20054;-88
2021/03/18 15:52:18;;;;;;;8.05;2.42;;;10.30;99.90;;;;;;5016976;28;20050;-89
2021/03/18 15:54:46;;;;;;;9.13;2.25;;;10.30;99.90;;;;;;5016985;28;20429;-89
2021/03/18 15:57:12;;;;;;;4.47;2.67;;;10.20;99.90;;;;;;5020201;28;20063;-87
2021/03/18 15:59:39;;;;;;;5.50;2.70;;;10.20;99.90;;;;;;5018158;28;20196;-85
2021/03/18 16:02:05;;;;;;;9.20;3.17;;;10.10;99.90;;;;;;5017396;28;20053;-88
2021/03/18 16:04:33;;;;;;;7.40;2.65;;;10.10;99.90;;;;;;5017601;28;20046;-87
2021/03/18 16:07:00;;;;;;;7.35;3.28;;;10.00;99.90;;;;;;5016693;28;20141;-90
2021/03/18 16:09:27;;;;;;;8.73;4.63;;;10.00;99.90;;;;;;5016511;28;20049;-89
2021/03/18 16:11:55;;;;;;;4.20;2.83;;;10.00;99.90;;;;;;5016391;28;20064;-90
2021/03/18 16:14:21;;;;;;;5.60;2.55;;;10.00;99.90;;;;;;5016328;28;20046;-90
2021/03/18 16:16:48;;;;;;;5.55;2.85;;;10.00;99.90;;;;;;5016608;28;20068;-90
2021/03/18 16:19:15;;;;;;;8.85;3.28;;;10.10;99.90;;;;;;5016270;28;20050;-90
2021/03/18 16:21:41;;;;;;;12.20;2.67;;;10.10;99.90;;;;;;5016113;28;20050;-90
2021/03/18 16:24:08;;;;;;;7.00;2.75;;;10.10;99.90;;;;;;5016182;28;20054;-90
2021/03/18 16:26:35;;;;;;;6.95;3.22;;;10.20;99.90;;;;;;5016253;28;20390;-90
2021/03/18 16:29:03;;;;;;;4.10;2.78;;;10.20;99.90;;;;;;5016023;28;20085;-90
2021/03/18 16:31:29;;;;;;;5.65;2.58;;;10.20;99.90;;;;;;5002032;28;20069;-90
2021/03/18 16:33:56;;;;;;;5.90;2.72;;;10.20;99.90;;;;;;4996483;28;20054;-90
2021/03/18 16:36:22;;;;;;;6.03;3.03;;;10.30;99.90;;;;;;4996617;28;20064;-90
2021/03/18 16:38:49;;;;;;;5.57;2.03;;;10.20;99.90;;;;;;4996086;28;20056;-90
2021/03/18 16:41:16;;;;;;;5.47;2.00;;;10.20;99.90;;;;;;4996372;28;20054;-90
2021/03/18 16:43:42;;;;;;;6.07;2.70;;;10.20;99.90;;;;;;4995899;28;20050;-90
2021/03/18 16:46:10;;;;;;;8.75;2.55;;;10.20;99.90;;;;;;4996383;28;20058;-90
2021/03/18 16:48:37;;;;;;;4.25;2.63;;;10.10;99.90;;;;;;4996198;28;20046;-90
2021/03/18 16:51:04;;;;;;;8.82;4.45;;;10.10;99.90;;;;;;5015541;28;20049;-90
2021/03/18 16:53:31;;;;;;;9.45;3.92;;;10.00;99.90;;;;;;5015834;28;20049;-90
2021/03/18 16:55:57;;;;;;;6.45;3.90;;;10.00;99.90;;;;;;5015828;28;20050;-90
2021/03/18 16:58:24;;;;;;;9.80;5.15;;;10.00;99.90;;;;;;5015706;28;20058;-90
2021/03/18 17:00:51;;;;;;;10.95;4.00;;;10.00;99.90;;;;;;5015607;28;20528;-90
2021/03/18 17:03:18;;;;;;;8.57;2.85;;;10.00;99.90;;;;;;5015405;28;20049;-90
2021/03/18 17:05:46;;;;;;;6.88;3.00;;;10.00;99.90;;;;;;5015199;28;20494;-89
2021/03/18 17:08:12;;;;;;;7.43;3.60;;;10.00;99.90;;;;;;5015312;28;20470;-90
2021/03/18 17:10:42;;;;;;;12.13;3.80;;;9.90;99.90;;;;;;5015369;28;20487;-89
2021/03/18 17:13:09;;;;;;;11.27;3.50;;;9.90;99.90;;;;;;5015563;28;20049;-90
2021/03/18 17:15:36;;;;;;;7.40;3.22;;;9.90;99.90;;;;;;5015574;28;20041;-90
2021/03/18 17:18:03;;;;;;;8.63;2.85;;;9.90;99.90;;;;;;5014970;28;20054;-89
2021/03/18 17:20:31;;;;;;;5.80;2.80;;;9.90;99.90;;;;;;5014966;28;20129;-89
2021/03/18 17:22:58;;;;;;;10.25;4.63;;;9.90;99.90;;;;;;5015308;28;20056;-89
2021/03/18 17:25:27;;;;;;;10.32;2.70;;;9.80;99.90;;;;;;5014983;28;20135;-90
2021/03/18 17:27:53;;;;;;;7.55;2.70;;;9.80;99.90;;;;;;5014759;28;20096;-89
2021/03/18 17:30:22;;;;;;;4.95;2.45;;;9.70;99.90;;;;;;5015213;28;20398;-90
2021/03/18 17:32:49;;;;;;;10.95;3.17;;;9.70;99.90;;;;;;5014285;28;20054;-90
2021/03/18 17:35:15;;;;;;;13.88;3.28;;;9.60;99.90;;;;;;5014929;28;20077;-90
2021/03/18 17:37:43;;;;;;;5.75;3.85;;;9.60;99.90;;;;;;5015244;28;20058;-89
2021/03/18 17:40:11;;;;;;;5.30;2.67;;;9.40;99.90;;;;;;5014742;28;20053;-89
2021/03/18 17:42:38;;;;;;;7.93;2.60;;;9.40;99.90;;;;;;5014753;28;20049;-90
2021/03/18 17:45:06;;;;;;;11.18;2.42;;;9.30;99.90;;;;;;5013882;28;20053;-90
2021/03/18 17:47:33;;;;;;;8.73;2.92;;;9.20;99.90;;;;;;5014889;28;20394;-90
2021/03/18 17:49:59;;;;;;;6.13;3.45;;;9.20;99.90;;;;;;5014832;28;20061;-90
2021/03/18 17:52:26;;;;;;;7.95;4.15;;;9.10;99.90;;;;;;5014880;28;20054;-89
2021/03/18 17:54:54;;;;;;;12.95;6.95;;;9.10;99.90;;;;;;5014274;28;20045;-90
2021/03/18 17:57:20;;;;;;;11.52;6.90;;;9.00;99.90;;;;;;5014939;28;20050;-90
2021/03/18 17:59:47;;;;;;;10.63;6.00;;;9.00;99.90;;;;;;5014521;28;20054;-89
2021/03/18 18:02:14;;;;;;;20.10;6.38;;;8.90;99.90;;;;;;5014879;28;20433;-89
2021/03/18 18:04:40;;;;;;;12.00;5.50;;;8.90;99.90;;;;;;5014573;28;20050;-89
2021/03/18 18:07:07;;;;;;;9.73;5.22;;;8.90;99.90;;;;;;5014543;28;20049;-90
2021/03/18 18:09:33;;;;;;;9.43;4.90;;;8.90;99.90;;;;;;5014984;28;20075;-90
2021/03/18 18:12:01;;;;;;;12.60;4.43;;;8.90;99.90;;;;;;5014454;28;20115;-91
2021/03/18 18:14:28;;;;;;;15.50;4.93;;;8.90;99.90;;;;;;5014544;28;20115;-87
2021/03/18 18:16:55;;;;;;;17.45;12.18;;;9.00;99.90;;;;;;5014800;28;20058;-91
2021/03/18 18:19:21;;;;;;;21.52;11.52;;;9.00;99.90;;;;;;5014963;28;20386;-90
2021/03/18 18:21:48;;;;;;;10.95;5.82;;;9.00;99.90;;;;;;5008004;28;20129;-92
2021/03/18 18:24:16;;;;;;;8.07;4.13;;;8.90;99.90;;;;;;4995244;28;20050;-91
2021/03/18 18:26:43;;;;;;;11.13;5.95;;;8.90;99.90;;;;;;4995170;28;20551;-91
2021/03/18 18:29:11;;;;;;;18.88;8.15;;;9.00;99.90;;;;;;4995407;28;20081;-92
2021/03/18 18:31:37;;;;;;;13.27;5.18;;;9.00;99.90;;;;;;4995098;28;20060;-92
2021/03/18 18:34:04;;;;;;;7.60;3.28;;;8.90;99.90;;;;;;4995546;28;20426;-91
2021/03/18 18:36:31;;;;;;;17.08;4.13;;;8.90;99.90;;;;;;4995213;28;20065;-91
2021/03/18 18:38:58;;;;;;;10.20;3.30;;;8.90;99.90;;;;;;4995359;28;20050;-91
2021/03/18 18:41:24;;;;;;;5.88;4.30;;;8.90;99.90;;;;;;4995230;28;20070;-92
2021/03/18 18:43:51;;;;;;;10.52;3.75;;;8.90;99.90;;;;;;4995441;28;20379;-92
2021/03/18 18:46:22;;;;;;;16.10;6.07;;;8.90;99.90;;;;;;4995174;28;20050;-92
2021/03/18 18:48:48;;;;;;;12.45;3.72;;;8.90;99.90;;;;;;4996077;28;20108;-92
2021/03/18 18:51:15;;;;;;;10.40;4.35;;;8.90;99.90;;;;;;5014721;28;20058;-92
2021/03/18 18:53:42;;;;;;;14.68;4.07;;;8.90;99.90;;;;;;5014798;28;20097;-92
2021/03/18 18:56:08;;;;;;;14.27;4.30;;;8.90;99.90;;;;;;5014817;28;20056;-92
2021/03/18 18:58:35;;;;;;;9.68;4.78;;;8.90;99.90;;;;;;5014934;28;20050;-91
2021/03/18 19:01:02;;;;;;;11.48;5.38;;;8.90;99.90;;;;;;5014859;28;20153;-92
2021/03/18 19:03:30;;;;;;;7.63;4.15;;;8.90;99.90;;;;;;5014521;28;20107;-92
2021/03/18 19:05:56;;;;;;;6.65;4.13;;;8.90;99.90;;;;;;5011177;28;20050;-92
2021/03/18 19:08:23;;;;;;;11.38;5.97;;;8.90;99.90;;;;;;4998593;28;20463;-92
2021/03/18 19:10:50;;;;;;;16.77;6.72;;;8.90;99.90;;;;;;4998444;28;20054;-92
2021/03/18 19:13:19;;;;;;;14.05;5.20;;;8.90;99.90;;;;;;4998422;28;20046;-92
2021/03/18 19:15:45;;;;;;;11.85;6.40;;;8.90;99.90;;;;;;4998434;28;20043;-92
2021/03/18 19:18:14;;;;;;;13.52;4.85;;;8.90;99.90;;;;;;4998662;28;20410;-92
2021/03/18 19:20:43;;;;;;;19.67;6.28;;;8.90;99.90;;;;;;5014408;28;20049;-92
2021/03/18 19:23:11;;;;;;;18.70;7.68;;;8.90;99.90;;;;;;5017984;28;20116;-92
2021/03/18 19:25:41;;;;;;;13.60;5.63;;;8.90;99.90;;;;;;5017876;28;20045;-92
2021/03/18 19:28:08;;;;;;;17.50;7.05;;;8.90;99.90;;;;;;5017742;28;20064;-92
2021/03/18 19:30:35;;;;;;;19.85;6.13;;;8.90;99.90;;;;;;5017903;28;20393;-92
2021/03/18 19:33:02;;;;;;;18.58;8.32;;;8.90;99.90;;;;;;5015932;28;20463;-90
2021/03/18 19:35:29;;;;;;;17.48;6.85;;;8.90;99.90;;;;;;5017053;28;20081;-89
2021/03/18 19:37:57;;;;;;;16.08;7.30;;;8.90;99.90;;;;;;5001332;28;20393;-87
2021/03/18 19:40:26;;;;;;;18.00;7.13;;;8.90;99.90;;;;;;4996923;28;20419;-90
2021/03/18 19:42:52;;;;;;;16.02;7.63;;;8.90;99.90;;;;;;4996628;28;20058;-90
2021/03/18 19:45:19;;;;;;;21.60;8.57;;;8.80;99.90;;;;;;4997284;28;20082;-90
2021/03/18 19:47:49;;;;;;;28.42;8.65;;;8.80;99.90;;;;;;4997682;28;20054;-89
2021/03/18 19:50:18;;;;;;;18.38;9.93;;;8.80;99.90;;;;;;5006751;28;20046;-87
2021/03/18 19:52:49;;;;;;;26.30;9.07;;;8.80;99.90;;;;;;4996060;28;20054;-87
2021/03/18 19:55:17;;;;;;;21.67;8.88;;;8.80;99.90;;;;;;4996084;28;20069;-89
2021/03/18 19:57:44;;;;;;;20.20;9.95;;;8.80;99.90;;;;;;4996503;28;20498;-88
2021/03/18 20:00:12;;;;;;;20.05;9.98;;;8.80;99.90;;;;;;4996329;28;20057;-89
2021/03/18 20:02:39;;;;;;;19.38;8.15;;;8.80;99.90;;;;;;4996471;28;20051;-89
2021/03/18 20:05:07;;;;;;;16.23;8.98;;;8.80;99.90;;;;;;4996577;28;20244;-89
2021/03/18 20:07:34;;;;;;;17.48;8.27;;;8.80;99.90;;;;;;4996411;28;20133;-88
2021/03/18 20:10:01;;;;;;;21.50;9.38;;;8.80;99.90;;;;;;4996656;28;20054;-90
2021/03/18 20:12:28;;;;;;;20.70;9.50;;;8.80;99.90;;;;;;4996928;28;20046;-89
2021/03/18 20:14:56;;;;;;;24.25;11.15;;;8.80;99.90;;;;;;4996807;28;20057;-89
2021/03/18 20:17:22;;;;;;;23.55;11.48;;;8.80;99.90;;;;;;4996575;28;20125;-87
2021/03/18 20:19:49;;;;;;;24.20;10.80;;;8.70;99.90;;;;;;4995883;28;20050;-87
2021/03/18 20:22:16;;;;;;;30.02;11.38;;;8.70;99.90;;;;;;4996550;28;20368;-86
2021/03/18 20:24:43;;;;;;;31.77;11.88;;;8.80;99.90;;;;;;4996546;28;20050;-91
2021/03/18 20:27:22;;;;;;;23.88;11.35;;;8.70;99.90;;;;;;4996918;28;20046;-91
2021/03/18 20:29:51;;;;;;;24.20;10.65;;;8.70;99.90;;;;;;4994785;28;20066;-88
2021/03/18 20:32:19;;;;;;;20.90;10.98;;;8.70;99.90;;;;;;4996106;28;20065;-88
2021/03/18 20:34:46;;;;;;;23.60;10.57;;;8.70;99.90;;;;;;4994839;28;20046;-89
2021/03/18 20:37:13;;;;;;;21.27;11.85;;;8.70;99.90;;;;;;4995774;28;20466;-92
2021/03/18 20:39:39;;;;;;;24.38;10.55;;;8.70;99.90;;;;;;4996287;28;20050;-88
2021/03/18 20:42:06;;;;;;;27.70;12.80;;;8.70;99.90;;;;;;4996106;28;20070;-88
2021/03/18 20:44:34;;;;;;;26.70;10.52;;;8.70;99.90;;;;;;4998155;28;20054;-88
2021/03/18 20:47:01;;;;;;;26.33;12.63;;;8.70;99.90;;;;;;5003151;28;20540;-90
2021/03/18 20:49:28;;;;;;;26.38;11.63;;;8.70;99.90;;;;;;4999913;28;20054;-89
2021/03/18 20:51:54;;;;;;;26.98;11.95;;;8.70;99.90;;;;;;4996288;28;20089;-88
2021/03/18 20:54:24;;;;;;;31.00;11.13;;;8.70;99.90;;;;;;4995872;28;20069;-89
2021/03/18 20:56:50;;;;;;;29.42;10.43;;;8.70;99.90;;;;;;4996338;28;20081;-89
2021/03/18 20:59:18;;;;;;;29.30;10.82;;;8.70;99.90;;;;;;4995713;28;20050;-88
2021/03/18 21:01:45;;;;;;;29.00;10.48;;;8.70;99.90;;;;;;4994786;28;20056;-87
2021/03/18 21:04:12;;;;;;;24.83;10.63;;;8.70;99.90;;;;;;4996020;28;20470;-88
2021/03/18 21:06:39;;;;;;;25.70;10.23;;;8.70;99.90;;;;;;4995881;28;20058;-88
2021/03/18 21:09:06;;;;;;;33.00;14.40;;;8.60;99.90;;;;;;4995556;28;20111;-88
2021/03/18 21:11:33;;;;;;;26.88;12.15;;;8.60;99.90;;;;;;4995976;28;20058;-88
2021/03/18 21:14:00;;;;;;;21.77;12.85;;;8.60;99.90;;;;;;4995973;28;20150;-88
2021/03/18 21:16:27;;;;;;;30.40;11.48;;;8.60;99.90;;;;;;4995653;28;20101;-87
2021/03/18 21:18:54;;;;;;;29.90;13.20;;;8.60;99.90;;;;;;4997240;28;20050;-86
2021/03/18 21:21:21;;;;;;;37.03;11.30;;;8.60;99.90;;;;;;5000329;28;20054;-88